Terminal Aerodrome Forecast
Issued by NWS

Home | Current Version | Previous Version | Text Only | Print | Product List | Glossary On
Versions: 1 2 3 4 5 6 7 8 9 10 11 12 13
924
FTUS46 KMFR 131726
TAFLMT
TAF
KLMT 131726Z 1318/1418 VRB03KT P6SM SCT010
     FM140500 27006KT P6SM VCSH BKN050 BKN080
     FM141200 25006KT P6SM -RA OVC035=

USA.gov is the U.S. government's official web portal to all federal, state and local government web resources and services.